MKJS/MBJ METAR and TAF weather

Enter ICAO airport designator
Station Type Date Time Source
MKJS METAR 2018/12/11 21:00 UTC NOAA

MKJS 112100Z 05012KT 9999 SCT022 29/22 Q1016


Station Type Date Time Source
MKJS Decoded METAR 2018/12/11 21:00 UTC NOAA

Montego Bay / Sangster, Jamaica (MKJS) 18-30N 077-55W 8M
Dec 11, 2018 - 04:00 PM EST / 2018.12.11 2100 UTC
Wind: from the NE (050 degrees) at 14 MPH (12 KT):0
Visibility: greater than 7 mile(s):0
Sky conditions: partly cloudy
Temperature: 84 F (29 C)
Dew Point: 71 F (22 C)
Relative Humidity: 65%
Pressure (altimeter): 30.00 in. Hg (1016 hPa)
ob: MKJS 112100Z 05012KT 9999 SCT022 29/22 Q1016
cycle: 21

Station Type Date Time Source
MKJS TAF 2018/12/11 18:21 UTC NOAA

TAF MKJS 111715Z 1118/1218 03012KT 9999 SCT020
BECMG 1200/1202 VRB02KT
TEMPO 1209/1213 7000 SHRA BKN018
BECMG 1212/1214 05015KT SCT020


Example: see airport list